sensor_id;sensor_type;location;lat;lon;timestamp;P1;durP1;ratioP1;P2;durP2;ratioP2
9938;SDS011;5008;50.656;7.188;2023-03-01T05:01:09;9.27;;;7.10;;
9938;SDS011;5008;50.656;7.188;2023-03-01T05:03:40;8.63;;;6.57;;
9938;SDS011;5008;50.656;7.188;2023-03-01T05:06:07;10.07;;;7.43;;
9938;SDS011;5008;50.656;7.188;2023-03-01T05:08:34;9.33;;;7.37;;
9938;SDS011;5008;50.656;7.188;2023-03-01T05:11:03;11.40;;;7.53;;
9938;SDS011;5008;50.656;7.188;2023-03-01T05:13:30;9.83;;;7.27;;
9938;SDS011;5008;50.656;7.188;2023-03-01T05:15:57;10.63;;;7.60;;
9938;SDS011;5008;50.656;7.188;2023-03-01T05:18:27;7.33;;;6.13;;
9938;SDS011;5008;50.656;7.188;2023-03-01T05:20:55;9.67;;;7.37;;
9938;SDS011;5008;50.656;7.188;2023-03-01T05:23:29;7.93;;;6.43;;
9938;SDS011;5008;50.656;7.188;2023-03-01T05:28:42;9.43;;;7.07;;
9938;SDS011;5008;50.656;7.188;2023-03-01T05:31:09;8.10;;;6.70;;
9938;SDS011;5008;50.656;7.188;2023-03-01T05:33:37;7.93;;;7.13;;
9938;SDS011;5008;50.656;7.188;2023-03-01T05:36:05;8.83;;;6.40;;
9938;SDS011;5008;50.656;7.188;2023-03-01T05:38:33;7.93;;;6.43;;
9938;SDS011;5008;50.656;7.188;2023-03-01T05:41:00;8.67;;;7.10;;
9938;SDS011;5008;50.656;7.188;2023-03-01T05:43:29;8.20;;;7.13;;
9938;SDS011;5008;50.656;7.188;2023-03-01T05:45:59;11.50;;;7.70;;
9938;SDS011;5008;50.656;7.188;2023-03-01T05:48:26;8.37;;;7.07;;
9938;SDS011;5008;50.656;7.188;2023-03-01T05:50:54;8.87;;;6.80;;
9938;SDS011;5008;50.656;7.188;2023-03-01T05:53:21;7.97;;;6.60;;
9938;SDS011;5008;50.656;7.188;2023-03-01T05:55:54;9.33;;;7.47;;
9938;SDS011;5008;50.656;7.188;2023-03-01T05:58:21;9.90;;;7.23;;
9938;SDS011;5008;50.656;7.188;2023-03-01T06:00:48;8.43;;;6.93;;
9938;SDS011;5008;50.656;7.188;2023-03-01T06:06:35;9.57;;;8.17;;
9938;SDS011;5008;50.656;7.188;2023-03-01T06:09:03;9.53;;;7.27;;
9938;SDS011;5008;50.656;7.188;2023-03-01T06:11:33;10.93;;;7.80;;
9938;SDS011;5008;50.656;7.188;2023-03-01T06:14:13;10.47;;;7.30;;
9938;SDS011;5008;50.656;7.188;2023-03-01T06:16:42;9.10;;;7.50;;
9938;SDS011;5008;50.656;7.188;2023-03-01T06:19:09;9.53;;;6.73;;
9938;SDS011;5008;50.656;7.188;2023-03-01T06:21:39;11.40;;;7.50;;
9938;SDS011;5008;50.656;7.188;2023-03-01T06:24:06;12.10;;;7.87;;
9938;SDS011;5008;50.656;7.188;2023-03-01T06:26:33;9.80;;;8.30;;
9938;SDS011;5008;50.656;7.188;2023-03-01T06:29:00;10.57;;;7.13;;
9938;SDS011;5008;50.656;7.188;2023-03-01T06:31:32;10.70;;;8.47;;
9938;SDS011;5008;50.656;7.188;2023-03-01T06:33:59;10.37;;;8.13;;
9938;SDS011;5008;50.656;7.188;2023-03-01T06:36:26;11.87;;;7.77;;
9938;SDS011;5008;50.656;7.188;2023-03-01T06:47:13;12.33;;;8.10;;
9938;SDS011;5008;50.656;7.188;2023-03-01T06:49:46;10.60;;;8.87;;
9938;SDS011;5008;50.656;7.188;2023-03-01T06:52:30;10.37;;;8.23;;
9938;SDS011;5008;50.656;7.188;2023-03-01T06:54:58;10.53;;;7.47;;
9938;SDS011;5008;50.656;7.188;2023-03-01T06:57:25;10.30;;;8.37;;
9938;SDS011;5008;50.656;7.188;2023-03-01T07:02:35;10.93;;;8.20;;
9938;SDS011;5008;50.656;7.188;2023-03-01T07:05:02;10.67;;;8.77;;
9938;SDS011;5008;50.656;7.188;2023-03-01T07:07:29;11.57;;;8.20;;
9938;SDS011;5008;50.656;7.188;2023-03-01T07:12:44;14.43;;;8.47;;
9938;SDS011;5008;50.656;7.188;2023-03-01T07:15:12;12.33;;;8.97;;
9938;SDS011;5008;50.656;7.188;2023-03-01T07:17:40;11.97;;;9.00;;
9938;SDS011;5008;50.656;7.188;2023-03-01T07:20:07;11.43;;;9.33;;
9938;SDS011;5008;50.656;7.188;2023-03-01T07:22:35;15.23;;;10.43;;
9938;SDS011;5008;50.656;7.188;2023-03-01T07:25:02;13.03;;;9.83;;
9938;SDS011;5008;50.656;7.188;2023-03-01T07:27:30;13.37;;;9.80;;
9938;SDS011;5008;50.656;7.188;2023-03-01T07:29:57;14.23;;;10.53;;
9938;SDS011;5008;50.656;7.188;2023-03-01T07:32:23;13.73;;;11.10;;
9938;SDS011;5008;50.656;7.188;2023-03-01T07:34:50;13.40;;;10.57;;
9938;SDS011;5008;50.656;7.188;2023-03-01T07:37:17;12.27;;;10.57;;
9938;SDS011;5008;50.656;7.188;2023-03-01T07:39:44;12.73;;;10.30;;
9938;SDS011;5008;50.656;7.188;2023-03-01T07:42:11;18.00;;;11.13;;
9938;SDS011;5008;50.656;7.188;2023-03-01T07:44:39;15.27;;;10.97;;
9938;SDS011;5008;50.656;7.188;2023-03-01T07:47:06;15.53;;;11.80;;
9938;SDS011;5008;50.656;7.188;2023-03-01T07:49:32;14.80;;;10.83;;
9938;SDS011;5008;50.656;7.188;2023-03-01T07:51:59;15.77;;;11.07;;
9938;SDS011;5008;50.656;7.188;2023-03-01T07:54:26;14.83;;;10.57;;
9938;SDS011;5008;50.656;7.188;2023-03-01T07:56:53;14.57;;;10.43;;
9938;SDS011;5008;50.656;7.188;2023-03-01T07:59:20;12.90;;;10.43;;
9938;SDS011;5008;50.656;7.188;2023-03-01T08:01:53;14.83;;;10.03;;
9938;SDS011;5008;50.656;7.188;2023-03-01T08:04:25;15.77;;;10.20;;
9938;SDS011;5008;50.656;7.188;2023-03-01T08:06:53;14.13;;;10.90;;
9938;SDS011;5008;50.656;7.188;2023-03-01T08:12:12;16.37;;;11.47;;
9938;SDS011;5008;50.656;7.188;2023-03-01T08:14:41;22.47;;;13.50;;
9938;SDS011;5008;50.656;7.188;2023-03-01T08:17:09;16.63;;;11.57;;
9938;SDS011;5008;50.656;7.188;2023-03-01T08:19:36;18.10;;;11.87;;
9938;SDS011;5008;50.656;7.188;2023-03-01T08:22:12;14.77;;;11.43;;
9938;SDS011;5008;50.656;7.188;2023-03-01T08:24:39;18.27;;;11.07;;
9938;SDS011;5008;50.656;7.188;2023-03-01T08:27:12;16.20;;;12.40;;
9938;SDS011;5008;50.656;7.188;2023-03-01T08:29:40;17.30;;;12.10;;
9938;SDS011;5008;50.656;7.188;2023-03-01T08:32:17;14.47;;;11.00;;
9938;SDS011;5008;50.656;7.188;2023-03-01T08:34:45;14.93;;;11.23;;
9938;SDS011;5008;50.656;7.188;2023-03-01T08:37:12;13.43;;;11.13;;
9938;SDS011;5008;50.656;7.188;2023-03-01T08:39:39;12.90;;;10.13;;
9938;SDS011;5008;50.656;7.188;2023-03-01T08:42:12;15.67;;;10.73;;
9938;SDS011;5008;50.656;7.188;2023-03-01T08:44:39;16.10;;;11.30;;
9938;SDS011;5008;50.656;7.188;2023-03-01T08:47:05;14.40;;;10.40;;
9938;SDS011;5008;50.656;7.188;2023-03-01T08:49:34;14.77;;;11.83;;
9938;SDS011;5008;50.656;7.188;2023-03-01T08:52:01;12.27;;;9.73;;
9938;SDS011;5008;50.656;7.188;2023-03-01T08:57:12;17.60;;;11.60;;
9938;SDS011;5008;50.656;7.188;2023-03-01T08:59:43;14.17;;;10.73;;
9938;SDS011;5008;50.656;7.188;2023-03-01T09:02:15;15.27;;;10.90;;
9938;SDS011;5008;50.656;7.188;2023-03-01T09:08:14;13.07;;;10.83;;
9938;SDS011;5008;50.656;7.188;2023-03-01T09:10:42;17.70;;;10.73;;
9938;SDS011;5008;50.656;7.188;2023-03-01T09:13:09;12.47;;;10.93;;
9938;SDS011;5008;50.656;7.188;2023-03-01T09:18:39;13.57;;;10.37;;
9938;SDS011;5008;50.656;7.188;2023-03-01T09:21:09;13.77;;;11.27;;
9938;SDS011;5008;50.656;7.188;2023-03-01T09:23:40;12.70;;;10.60;;
9938;SDS011;5008;50.656;7.188;2023-03-01T09:26:09;15.83;;;10.33;;
9938;SDS011;5008;50.656;7.188;2023-03-01T09:28:38;13.13;;;11.60;;
9938;SDS011;5008;50.656;7.188;2023-03-01T09:31:05;12.93;;;10.63;;
9938;SDS011;5008;50.656;7.188;2023-03-01T09:33:32;13.53;;;11.97;;
9938;SDS011;5008;50.656;7.188;2023-03-01T09:36:00;13.27;;;10.30;;
9938;SDS011;5008;50.656;7.188;2023-03-01T09:38:30;15.50;;;10.60;;
9938;SDS011;5008;50.656;7.188;2023-03-01T09:40:57;13.03;;;10.77;;
9938;SDS011;5008;50.656;7.188;2023-03-01T09:43:26;18.17;;;10.70;;
9938;SDS011;5008;50.656;7.188;2023-03-01T09:46:01;13.27;;;10.27;;
9938;SDS011;5008;50.656;7.188;2023-03-01T09:48:33;13.97;;;10.67;;
9938;SDS011;5008;50.656;7.188;2023-03-01T09:51:08;15.13;;;11.10;;
9938;SDS011;5008;50.656;7.188;2023-03-01T09:53:42;14.37;;;10.73;;
9938;SDS011;5008;50.656;7.188;2023-03-01T09:56:12;13.40;;;10.77;;
9938;SDS011;5008;50.656;7.188;2023-03-01T09:58:47;13.07;;;10.20;;
9938;SDS011;5008;50.656;7.188;2023-03-01T10:01:29;14.43;;;10.33;;
9938;SDS011;5008;50.656;7.188;2023-03-01T10:04:17;15.30;;;11.07;;
9938;SDS011;5008;50.656;7.188;2023-03-01T10:07:17;14.97;;;11.07;;
9938;SDS011;5008;50.656;7.188;2023-03-01T10:09:52;14.60;;;11.17;;
9938;SDS011;5008;50.656;7.188;2023-03-01T10:12:20;14.33;;;10.67;;
9938;SDS011;5008;50.656;7.188;2023-03-01T10:14:51;13.47;;;11.27;;
9938;SDS011;5008;50.656;7.188;2023-03-01T10:17:25;14.93;;;11.63;;
9938;SDS011;5008;50.656;7.188;2023-03-01T10:19:56;14.43;;;10.27;;
9938;SDS011;5008;50.656;7.188;2023-03-01T10:22:36;14.53;;;9.77;;
9938;SDS011;5008;50.656;7.188;2023-03-01T10:25:13;13.83;;;9.63;;
9938;SDS011;5008;50.656;7.188;2023-03-01T10:27:43;14.80;;;9.90;;
9938;SDS011;5008;50.656;7.188;2023-03-01T10:30:18;11.83;;;9.60;;
9938;SDS011;5008;50.656;7.188;2023-03-01T10:32:49;11.70;;;9.70;;
9938;SDS011;5008;50.656;7.188;2023-03-01T10:35:19;13.13;;;10.00;;
9938;SDS011;5008;50.656;7.188;2023-03-01T10:37:58;12.03;;;9.43;;
9938;SDS011;5008;50.656;7.188;2023-03-01T10:40:30;11.70;;;9.60;;
9938;SDS011;5008;50.656;7.188;2023-03-01T10:42:58;13.37;;;10.40;;
9938;SDS011;5008;50.656;7.188;2023-03-01T10:45:30;12.77;;;9.93;;
9938;SDS011;5008;50.656;7.188;2023-03-01T10:48:03;11.07;;;8.33;;
9938;SDS011;5008;50.656;7.188;2023-03-01T10:50:40;10.70;;;9.10;;
9938;SDS011;5008;50.656;7.188;2023-03-01T10:53:18;12.00;;;9.53;;
9938;SDS011;5008;50.656;7.188;2023-03-01T10:56:00;10.87;;;9.17;;
9938;SDS011;5008;50.656;7.188;2023-03-01T10:58:30;9.77;;;8.63;;
9938;SDS011;5008;50.656;7.188;2023-03-01T11:00:59;11.07;;;8.70;;
9938;SDS011;5008;50.656;7.188;2023-03-01T11:03:28;11.07;;;9.50;;
9938;SDS011;5008;50.656;7.188;2023-03-01T11:06:00;10.83;;;9.73;;
9938;SDS011;5008;50.656;7.188;2023-03-01T11:08:32;11.93;;;9.47;;
9938;SDS011;5008;50.656;7.188;2023-03-01T11:14:03;12.37;;;9.97;;
9938;SDS011;5008;50.656;7.188;2023-03-01T11:16:34;11.80;;;9.67;;
9938;SDS011;5008;50.656;7.188;2023-03-01T11:19:18;11.93;;;9.73;;
9938;SDS011;5008;50.656;7.188;2023-03-01T11:21:50;11.03;;;9.13;;
9938;SDS011;5008;50.656;7.188;2023-03-01T11:24:33;10.97;;;9.27;;
9938;SDS011;5008;50.656;7.188;2023-03-01T11:27:08;11.13;;;9.20;;
9938;SDS011;5008;50.656;7.188;2023-03-01T11:29:43;11.27;;;9.03;;
9938;SDS011;5008;50.656;7.188;2023-03-01T11:32:18;12.27;;;9.50;;
9938;SDS011;5008;50.656;7.188;2023-03-01T11:34:53;13.33;;;9.10;;
9938;SDS011;5008;50.656;7.188;2023-03-01T11:37:26;10.40;;;9.30;;
9938;SDS011;5008;50.656;7.188;2023-03-01T11:40:03;10.37;;;8.93;;
9938;SDS011;5008;50.656;7.188;2023-03-01T11:42:42;12.50;;;8.93;;
9938;SDS011;5008;50.656;7.188;2023-03-01T11:45:17;11.40;;;9.17;;
9938;SDS011;5008;50.656;7.188;2023-03-01T11:47:56;11.33;;;9.17;;
9938;SDS011;5008;50.656;7.188;2023-03-01T11:50:39;12.57;;;8.47;;
9938;SDS011;5008;50.656;7.188;2023-03-01T11:53:22;9.77;;;8.57;;
9938;SDS011;5008;50.656;7.188;2023-03-01T11:56:02;11.07;;;8.57;;
9938;SDS011;5008;50.656;7.188;2023-03-01T11:58:43;10.40;;;9.00;;
9938;SDS011;5008;50.656;7.188;2023-03-01T12:01:32;9.40;;;8.40;;
9938;SDS011;5008;50.656;7.188;2023-03-01T12:04:25;10.00;;;9.00;;
9938;SDS011;5008;50.656;7.188;2023-03-01T12:07:03;9.07;;;8.17;;
9938;SDS011;5008;50.656;7.188;2023-03-01T12:12:36;14.30;;;8.60;;
9938;SDS011;5008;50.656;7.188;2023-03-01T12:18:23;9.27;;;7.80;;
9938;SDS011;5008;50.656;7.188;2023-03-01T12:21:03;8.27;;;7.47;;
9938;SDS011;5008;50.656;7.188;2023-03-01T12:26:57;8.67;;;7.87;;
9938;SDS011;5008;50.656;7.188;2023-03-01T12:29:37;8.73;;;7.83;;
9938;SDS011;5008;50.656;7.188;2023-03-01T12:35:13;12.07;;;7.85;;
9938;SDS011;5008;50.656;7.188;2023-03-01T12:38:01;8.70;;;7.45;;
9938;SDS011;5008;50.656;7.188;2023-03-01T12:43:29;8.27;;;6.88;;
9938;SDS011;5008;50.656;7.188;2023-03-01T12:46:10;8.20;;;7.40;;
9938;SDS011;5008;50.656;7.188;2023-03-01T12:48:59;8.37;;;7.57;;
9938;SDS011;5008;50.656;7.188;2023-03-01T12:51:35;8.73;;;7.43;;
9938;SDS011;5008;50.656;7.188;2023-03-01T12:54:05;7.57;;;6.60;;
9938;SDS011;5008;50.656;7.188;2023-03-01T12:56:38;8.47;;;6.77;;
9938;SDS011;5008;50.656;7.188;2023-03-01T12:59:08;7.53;;;6.63;;
9938;SDS011;5008;50.656;7.188;2023-03-01T13:01:42;8.07;;;6.97;;
9938;SDS011;5008;50.656;7.188;2023-03-01T13:04:20;6.80;;;6.10;;
9938;SDS011;5008;50.656;7.188;2023-03-01T13:07:11;13.13;;;6.07;;
9938;SDS011;5008;50.656;7.188;2023-03-01T13:09:49;7.53;;;5.82;;
9938;SDS011;5008;50.656;7.188;2023-03-01T13:12:41;8.15;;;6.10;;
9938;SDS011;5008;50.656;7.188;2023-03-01T13:18:02;10.38;;;6.30;;
9938;SDS011;5008;50.656;7.188;2023-03-01T13:20:34;6.63;;;6.03;;
9938;SDS011;5008;50.656;7.188;2023-03-01T13:23:13;7.78;;;7.03;;
9938;SDS011;5008;50.656;7.188;2023-03-01T13:26:02;8.48;;;7.13;;
9938;SDS011;5008;50.656;7.188;2023-03-01T13:34:42;6.45;;;5.85;;
9938;SDS011;5008;50.656;7.188;2023-03-01T13:37:21;6.28;;;5.78;;
9938;SDS011;5008;50.656;7.188;2023-03-01T13:39:56;6.60;;;5.97;;
9938;SDS011;5008;50.656;7.188;2023-03-01T13:42:37;7.30;;;6.07;;
9938;SDS011;5008;50.656;7.188;2023-03-01T13:48:02;7.28;;;6.00;;
9938;SDS011;5008;50.656;7.188;2023-03-01T13:50:36;9.80;;;6.05;;
9938;SDS011;5008;50.656;7.188;2023-03-01T13:53:11;5.95;;;5.35;;
9938;SDS011;5008;50.656;7.188;2023-03-01T13:55:44;6.05;;;5.50;;
9938;SDS011;5008;50.656;7.188;2023-03-01T13:58:19;6.13;;;5.53;;
9938;SDS011;5008;50.656;7.188;2023-03-01T14:00:55;6.47;;;5.68;;
9938;SDS011;5008;50.656;7.188;2023-03-01T14:03:23;6.22;;;5.68;;
9938;SDS011;5008;50.656;7.188;2023-03-01T14:06:01;7.15;;;6.45;;
9938;SDS011;5008;50.656;7.188;2023-03-01T14:08:31;7.88;;;6.20;;
9938;SDS011;5008;50.656;7.188;2023-03-01T14:11:05;6.25;;;5.65;;
9938;SDS011;5008;50.656;7.188;2023-03-01T14:14:10;6.85;;;6.18;;
9938;SDS011;5008;50.656;7.188;2023-03-01T14:16:58;6.97;;;6.00;;
9938;SDS011;5008;50.656;7.188;2023-03-01T14:19:34;6.60;;;5.90;;
9938;SDS011;5008;50.656;7.188;2023-03-01T14:22:03;7.45;;;5.75;;
9938;SDS011;5008;50.656;7.188;2023-03-01T14:24:46;7.38;;;5.85;;
9938;SDS011;5008;50.656;7.188;2023-03-01T14:27:16;6.88;;;6.18;;
9938;SDS011;5008;50.656;7.188;2023-03-01T14:29:44;6.45;;;5.82;;
9938;SDS011;5008;50.656;7.188;2023-03-01T14:32:21;6.10;;;5.50;;
9938;SDS011;5008;50.656;7.188;2023-03-01T14:34:51;7.45;;;5.38;;
9938;SDS011;5008;50.656;7.188;2023-03-01T14:37:20;6.43;;;5.82;;
9938;SDS011;5008;50.656;7.188;2023-03-01T14:39:48;7.78;;;5.55;;
9938;SDS011;5008;50.656;7.188;2023-03-01T14:42:17;6.32;;;5.60;;
9938;SDS011;5008;50.656;7.188;2023-03-01T14:44:46;6.25;;;5.65;;
9938;SDS011;5008;50.656;7.188;2023-03-01T14:47:17;6.57;;;5.85;;
9938;SDS011;5008;50.656;7.188;2023-03-01T14:49:57;5.68;;;5.25;;
9938;SDS011;5008;50.656;7.188;2023-03-01T14:52:28;6.45;;;5.95;;
9938;SDS011;5008;50.656;7.188;2023-03-01T14:55:01;6.28;;;5.70;;
9938;SDS011;5008;50.656;7.188;2023-03-01T14:57:31;6.30;;;5.80;;
9938;SDS011;5008;50.656;7.188;2023-03-01T14:59:59;6.18;;;5.65;;
9938;SDS011;5008;50.656;7.188;2023-03-01T15:02:30;5.78;;;5.20;;
9938;SDS011;5008;50.656;7.188;2023-03-01T15:04:59;6.38;;;5.82;;
9938;SDS011;5008;50.656;7.188;2023-03-01T15:07:29;5.90;;;5.40;;
9938;SDS011;5008;50.656;7.188;2023-03-01T15:09:58;7.90;;;7.10;;
9938;SDS011;5008;50.656;7.188;2023-03-01T15:12:35;5.57;;;5.13;;
9938;SDS011;5008;50.656;7.188;2023-03-01T15:15:20;6.07;;;5.32;;
9938;SDS011;5008;50.656;7.188;2023-03-01T15:17:56;6.18;;;5.53;;
9938;SDS011;5008;50.656;7.188;2023-03-01T15:20:26;8.48;;;5.55;;
9938;SDS011;5008;50.656;7.188;2023-03-01T15:22:55;6.72;;;5.55;;
9938;SDS011;5008;50.656;7.188;2023-03-01T15:25:23;13.57;;;9.13;;
9938;SDS011;5008;50.656;7.188;2023-03-01T15:27:53;5.65;;;5.13;;
9938;SDS011;5008;50.656;7.188;2023-03-01T15:30:23;7.38;;;4.70;;
9938;SDS011;5008;50.656;7.188;2023-03-01T15:33:16;9.23;;;4.60;;
9938;SDS011;5008;50.656;7.188;2023-03-01T15:35:45;7.45;;;4.97;;
9938;SDS011;5008;50.656;7.188;2023-03-01T15:38:24;6.72;;;4.60;;
9938;SDS011;5008;50.656;7.188;2023-03-01T15:40:57;5.63;;;4.93;;
9938;SDS011;5008;50.656;7.188;2023-03-01T15:43:44;7.83;;;4.93;;
9938;SDS011;5008;50.656;7.188;2023-03-01T15:46:14;6.63;;;4.50;;
9938;SDS011;5008;50.656;7.188;2023-03-01T15:48:49;5.67;;;4.50;;
9938;SDS011;5008;50.656;7.188;2023-03-01T15:51:20;5.30;;;4.80;;
9938;SDS011;5008;50.656;7.188;2023-03-01T15:53:55;6.37;;;4.97;;
9938;SDS011;5008;50.656;7.188;2023-03-01T15:56:23;5.63;;;4.33;;
9938;SDS011;5008;50.656;7.188;2023-03-01T15:58:52;6.70;;;5.03;;
9938;SDS011;5008;50.656;7.188;2023-03-01T16:01:19;6.07;;;5.00;;
9938;SDS011;5008;50.656;7.188;2023-03-01T16:03:46;5.10;;;4.60;;
9938;SDS011;5008;50.656;7.188;2023-03-01T16:06:12;5.90;;;4.57;;
9938;SDS011;5008;50.656;7.188;2023-03-01T16:08:39;3.57;;;3.27;;
9938;SDS011;5008;50.656;7.188;2023-03-01T16:11:09;7.53;;;4.13;;
9938;SDS011;5008;50.656;7.188;2023-03-01T16:13:46;4.13;;;3.73;;
9938;SDS011;5008;50.656;7.188;2023-03-01T16:16:16;5.97;;;5.27;;
9938;SDS011;5008;50.656;7.188;2023-03-01T16:18:44;8.33;;;5.23;;
9938;SDS011;5008;50.656;7.188;2023-03-01T16:21:13;7.13;;;5.40;;
9938;SDS011;5008;50.656;7.188;2023-03-01T16:23:41;6.37;;;5.07;;
9938;SDS011;5008;50.656;7.188;2023-03-01T16:28:58;7.93;;;4.77;;
9938;SDS011;5008;50.656;7.188;2023-03-01T16:31:26;8.13;;;5.43;;
9938;SDS011;5008;50.656;7.188;2023-03-01T16:33:53;5.13;;;4.37;;
9938;SDS011;5008;50.656;7.188;2023-03-01T16:36:21;9.27;;;5.00;;
9938;SDS011;5008;50.656;7.188;2023-03-01T16:38:50;7.73;;;4.90;;
9938;SDS011;5008;50.656;7.188;2023-03-01T16:41:18;8.30;;;5.20;;
9938;SDS011;5008;50.656;7.188;2023-03-01T16:43:46;4.83;;;4.30;;
9938;SDS011;5008;50.656;7.188;2023-03-01T16:46:14;4.63;;;3.93;;
9938;SDS011;5008;50.656;7.188;2023-03-01T16:48:43;6.20;;;4.13;;
9938;SDS011;5008;50.656;7.188;2023-03-01T16:51:24;6.00;;;4.03;;
9938;SDS011;5008;50.656;7.188;2023-03-01T16:53:51;5.97;;;3.87;;
9938;SDS011;5008;50.656;7.188;2023-03-01T16:59:16;10.07;;;8.00;;
9938;SDS011;5008;50.656;7.188;2023-03-01T17:01:44;7.83;;;5.63;;
9938;SDS011;5008;50.656;7.188;2023-03-01T17:04:13;5.17;;;4.60;;
9938;SDS011;5008;50.656;7.188;2023-03-01T17:06:39;5.63;;;4.37;;
9938;SDS011;5008;50.656;7.188;2023-03-01T17:12:16;6.90;;;4.37;;
9938;SDS011;5008;50.656;7.188;2023-03-01T17:14:43;4.90;;;3.93;;
9938;SDS011;5008;50.656;7.188;2023-03-01T17:17:10;3.87;;;3.43;;
9938;SDS011;5008;50.656;7.188;2023-03-01T17:19:38;7.17;;;4.33;;
9938;SDS011;5008;50.656;7.188;2023-03-01T17:22:08;4.77;;;4.07;;
9938;SDS011;5008;50.656;7.188;2023-03-01T17:24:36;6.50;;;4.60;;
9938;SDS011;5008;50.656;7.188;2023-03-01T17:27:04;6.70;;;4.47;;
9938;SDS011;5008;50.656;7.188;2023-03-01T17:29:40;5.93;;;4.03;;
9938;SDS011;5008;50.656;7.188;2023-03-01T17:32:08;5.93;;;4.23;;
9938;SDS011;5008;50.656;7.188;2023-03-01T17:34:54;6.57;;;5.30;;
9938;SDS011;5008;50.656;7.188;2023-03-01T17:37:20;6.40;;;4.53;;
9938;SDS011;5008;50.656;7.188;2023-03-01T17:39:47;6.27;;;4.90;;
9938;SDS011;5008;50.656;7.188;2023-03-01T17:42:21;5.10;;;4.20;;
9938;SDS011;5008;50.656;7.188;2023-03-01T17:44:48;6.33;;;4.57;;
9938;SDS011;5008;50.656;7.188;2023-03-01T17:47:15;5.97;;;4.80;;
9938;SDS011;5008;50.656;7.188;2023-03-01T17:49:42;7.60;;;5.90;;
9938;SDS011;5008;50.656;7.188;2023-03-01T17:52:10;7.40;;;6.70;;
9938;SDS011;5008;50.656;7.188;2023-03-01T17:54:37;6.57;;;5.70;;
9938;SDS011;5008;50.656;7.188;2023-03-01T17:57:04;7.10;;;5.10;;
9938;SDS011;5008;50.656;7.188;2023-03-01T17:59:31;6.30;;;5.23;;
9938;SDS011;5008;50.656;7.188;2023-03-01T18:02:01;6.70;;;5.03;;
9938;SDS011;5008;50.656;7.188;2023-03-01T18:04:28;5.47;;;4.97;;
9938;SDS011;5008;50.656;7.188;2023-03-01T18:06:56;6.10;;;5.00;;
9938;SDS011;5008;50.656;7.188;2023-03-01T18:09:25;5.93;;;5.30;;
9938;SDS011;5008;50.656;7.188;2023-03-01T18:11:52;6.53;;;5.20;;
9938;SDS011;5008;50.656;7.188;2023-03-01T18:14:19;5.93;;;4.70;;
9938;SDS011;5008;50.656;7.188;2023-03-01T18:16:46;5.50;;;4.90;;
9938;SDS011;5008;50.656;7.188;2023-03-01T18:19:12;5.17;;;4.67;;
9938;SDS011;5008;50.656;7.188;2023-03-01T18:21:39;6.77;;;5.07;;
9938;SDS011;5008;50.656;7.188;2023-03-01T18:24:07;8.40;;;6.10;;
9938;SDS011;5008;50.656;7.188;2023-03-01T18:26:36;6.87;;;5.83;;
9938;SDS011;5008;50.656;7.188;2023-03-01T18:29:03;7.63;;;6.50;;
9938;SDS011;5008;50.656;7.188;2023-03-01T18:31:31;7.70;;;5.83;;
9938;SDS011;5008;50.656;7.188;2023-03-01T18:33:59;5.90;;;5.07;;
9938;SDS011;5008;50.656;7.188;2023-03-01T18:36:26;5.37;;;4.77;;
9938;SDS011;5008;50.656;7.188;2023-03-01T18:38:54;7.33;;;5.73;;
9938;SDS011;5008;50.656;7.188;2023-03-01T18:41:21;5.60;;;4.97;;
9938;SDS011;5008;50.656;7.188;2023-03-01T18:43:50;7.57;;;5.13;;
9938;SDS011;5008;50.656;7.188;2023-03-01T18:46:17;5.27;;;4.77;;
9938;SDS011;5008;50.656;7.188;2023-03-01T18:48:45;7.37;;;5.70;;
9938;SDS011;5008;50.656;7.188;2023-03-01T18:51:12;4.83;;;4.33;;
9938;SDS011;5008;50.656;7.188;2023-03-01T18:53:40;6.20;;;5.57;;
9938;SDS011;5008;50.656;7.188;2023-03-01T18:56:10;7.67;;;5.40;;
9938;SDS011;5008;50.656;7.188;2023-03-01T18:58:50;5.17;;;4.67;;
9938;SDS011;5008;50.656;7.188;2023-03-01T19:01:18;5.70;;;5.10;;
9938;SDS011;5008;50.656;7.188;2023-03-01T19:03:46;5.23;;;4.70;;
9938;SDS011;5008;50.656;7.188;2023-03-01T19:06:13;7.03;;;4.77;;
9938;SDS011;5008;50.656;7.188;2023-03-01T19:08:41;5.83;;;4.57;;
9938;SDS011;5008;50.656;7.188;2023-03-01T19:11:09;7.73;;;5.30;;
9938;SDS011;5008;50.656;7.188;2023-03-01T19:13:37;7.73;;;6.87;;
9938;SDS011;5008;50.656;7.188;2023-03-01T19:16:08;11.23;;;8.00;;
9938;SDS011;5008;50.656;7.188;2023-03-01T19:18:47;12.13;;;9.33;;
9938;SDS011;5008;50.656;7.188;2023-03-01T19:21:16;12.70;;;9.87;;
9938;SDS011;5008;50.656;7.188;2023-03-01T19:23:44;11.43;;;8.53;;
9938;SDS011;5008;50.656;7.188;2023-03-01T19:26:13;14.57;;;11.43;;
9938;SDS011;5008;50.656;7.188;2023-03-01T19:28:42;12.77;;;10.77;;
9938;SDS011;5008;50.656;7.188;2023-03-01T19:31:11;15.20;;;11.40;;
9938;SDS011;5008;50.656;7.188;2023-03-01T19:33:40;15.53;;;12.23;;
9938;SDS011;5008;50.656;7.188;2023-03-01T19:36:08;14.90;;;12.33;;
9938;SDS011;5008;50.656;7.188;2023-03-01T19:38:37;14.90;;;11.27;;
9938;SDS011;5008;50.656;7.188;2023-03-01T19:41:06;13.83;;;11.57;;
9938;SDS011;5008;50.656;7.188;2023-03-01T19:43:36;15.73;;;12.40;;
9938;SDS011;5008;50.656;7.188;2023-03-01T19:46:03;14.97;;;12.30;;
9938;SDS011;5008;50.656;7.188;2023-03-01T19:48:31;16.30;;;13.50;;
9938;SDS011;5008;50.656;7.188;2023-03-01T19:50:59;14.63;;;11.33;;
9938;SDS011;5008;50.656;7.188;2023-03-01T19:53:25;14.47;;;11.77;;
9938;SDS011;5008;50.656;7.188;2023-03-01T19:55:55;16.40;;;11.93;;
9938;SDS011;5008;50.656;7.188;2023-03-01T19:58:23;13.17;;;11.27;;
9938;SDS011;5008;50.656;7.188;2023-03-01T20:00:50;12.17;;;10.70;;
9938;SDS011;5008;50.656;7.188;2023-03-01T20:03:22;16.30;;;10.73;;
9938;SDS011;5008;50.656;7.188;2023-03-01T20:05:51;12.10;;;10.37;;
9938;SDS011;5008;50.656;7.188;2023-03-01T20:08:18;16.17;;;10.37;;
9938;SDS011;5008;50.656;7.188;2023-03-01T20:10:45;13.53;;;10.03;;
9938;SDS011;5008;50.656;7.188;2023-03-01T20:13:12;12.73;;;10.23;;
9938;SDS011;5008;50.656;7.188;2023-03-01T20:15:39;11.00;;;9.67;;
9938;SDS011;5008;50.656;7.188;2023-03-01T20:18:08;12.47;;;10.67;;
9938;SDS011;5008;50.656;7.188;2023-03-01T20:20:35;14.00;;;10.13;;
9938;SDS011;5008;50.656;7.188;2023-03-01T20:23:03;12.53;;;10.53;;
9938;SDS011;5008;50.656;7.188;2023-03-01T20:25:30;16.07;;;12.17;;
9938;SDS011;5008;50.656;7.188;2023-03-01T20:27:56;14.57;;;11.67;;
9938;SDS011;5008;50.656;7.188;2023-03-01T20:30:23;17.50;;;12.20;;
9938;SDS011;5008;50.656;7.188;2023-03-01T20:32:51;15.30;;;11.57;;
9938;SDS011;5008;50.656;7.188;2023-03-01T20:35:19;16.80;;;11.87;;
9938;SDS011;5008;50.656;7.188;2023-03-01T20:37:45;15.97;;;11.57;;
9938;SDS011;5008;50.656;7.188;2023-03-01T20:40:14;14.47;;;11.10;;
9938;SDS011;5008;50.656;7.188;2023-03-01T20:42:42;13.57;;;10.97;;
9938;SDS011;5008;50.656;7.188;2023-03-01T20:45:09;15.67;;;11.70;;
9938;SDS011;5008;50.656;7.188;2023-03-01T20:47:36;14.90;;;13.03;;
9938;SDS011;5008;50.656;7.188;2023-03-01T20:50:03;16.97;;;13.27;;
9938;SDS011;5008;50.656;7.188;2023-03-01T20:52:30;15.97;;;13.13;;
9938;SDS011;5008;50.656;7.188;2023-03-01T20:54:58;15.33;;;13.17;;
9938;SDS011;5008;50.656;7.188;2023-03-01T20:57:27;17.83;;;13.37;;
9938;SDS011;5008;50.656;7.188;2023-03-01T20:59:53;18.43;;;12.87;;
9938;SDS011;5008;50.656;7.188;2023-03-01T21:02:20;15.53;;;12.37;;
9938;SDS011;5008;50.656;7.188;2023-03-01T21:04:47;16.13;;;12.20;;
9938;SDS011;5008;50.656;7.188;2023-03-01T21:07:14;15.67;;;12.13;;
9938;SDS011;5008;50.656;7.188;2023-03-01T21:09:41;15.27;;;11.50;;
9938;SDS011;5008;50.656;7.188;2023-03-01T21:12:08;17.17;;;11.93;;
9938;SDS011;5008;50.656;7.188;2023-03-01T21:14:37;14.80;;;11.77;;
9938;SDS011;5008;50.656;7.188;2023-03-01T21:17:07;13.67;;;11.30;;
9938;SDS011;5008;50.656;7.188;2023-03-01T21:19:35;16.23;;;12.20;;
9938;SDS011;5008;50.656;7.188;2023-03-01T21:22:02;14.97;;;11.67;;
9938;SDS011;5008;50.656;7.188;2023-03-01T21:24:29;15.43;;;11.83;;
9938;SDS011;5008;50.656;7.188;2023-03-01T21:26:56;15.73;;;11.57;;
9938;SDS011;5008;50.656;7.188;2023-03-01T21:29:23;16.73;;;11.10;;
9938;SDS011;5008;50.656;7.188;2023-03-01T21:31:51;17.07;;;12.00;;
9938;SDS011;5008;50.656;7.188;2023-03-01T21:34:18;14.97;;;11.23;;
9938;SDS011;5008;50.656;7.188;2023-03-01T21:36:45;15.50;;;10.57;;